Time,TemperatureF,DewpointF,PressureIn,WindDirection,WindDirectionDegrees,WindSpeedMPH,WindSpeedGustMPH,Humidity,HourlyPrecipIn,Conditions,Clouds,dailyrainin,SoftwareType,DateUTC
2013-10-02 00:14:00,62.0,58.0,29.96,SSW,203,0.0,2.0,88,0.00,,,0.01,,2013-10-02 04:14:00,
2013-10-02 00:24:00,62.0,58.0,29.96,SW,226,0.0,1.0,88,0.00,,,0.01,,2013-10-02 04:24:00,
2013-10-02 00:44:00,62.0,58.0,29.96,SSW,204,0.0,2.0,88,0.00,,,0.01,,2013-10-02 04:44:00,
2013-10-02 00:54:00,62.0,58.0,29.96,SSW,202,0.0,2.0,87,0.00,,,0.01,,2013-10-02 04:54:00,
2013-10-02 01:13:00,62.0,58.0,29.96,SW,225,0.0,3.0,87,0.00,,,0.01,,2013-10-02 05:13:00,
2013-10-02 01:23:00,62.0,58.0,29.96,SSE,148,0.0,2.0,88,0.00,,,0.01,,2013-10-02 05:23:00,
2013-10-02 01:43:00,63.0,59.0,29.96,SW,221,0.0,5.0,88,0.00,,,0.01,,2013-10-02 05:43:00,
2013-10-02 01:53:00,63.0,59.0,29.96,SSW,205,0.0,3.0,87,0.00,,,0.01,,2013-10-02 05:53:00,
2013-10-02 02:12:00,63.0,59.0,29.96,SSW,211,1.0,4.0,87,0.00,,,0.01,,2013-10-02 06:12:00,
2013-10-02 02:22:00,63.0,59.0,29.96,WSW,238,1.0,4.0,86,0.00,,,0.01,,2013-10-02 06:22:00,
2013-10-02 02:42:00,63.0,59.0,29.96,SW,215,1.0,4.0,86,0.00,,,0.01,,2013-10-02 06:42:00,
2013-10-02 02:52:00,63.0,59.0,29.96,SW,233,1.0,4.0,86,0.00,,,0.01,,2013-10-02 06:52:00,
2013-10-02 03:12:00,63.0,59.0,29.97,SSW,203,1.0,6.0,87,0.00,,,0.01,,2013-10-02 07:12:00,
2013-10-02 03:22:00,63.0,59.0,29.97,WSW,243,1.0,5.0,87,0.00,,,0.01,,2013-10-02 07:22:00,
2013-10-02 03:42:00,62.0,58.0,29.97,SW,225,1.0,3.0,88,0.00,,,0.01,,2013-10-02 07:42:00,
2013-10-02 03:52:00,62.0,59.0,29.97,West,267,1.0,4.0,89,0.00,,,0.01,,2013-10-02 07:52:00,
2013-10-02 04:11:00,62.0,59.0,29.97,WSW,238,1.0,5.0,89,0.00,,,0.01,,2013-10-02 08:11:00,
2013-10-02 04:22:00,62.0,59.0,29.97,SSW,203,1.0,4.0,90,0.00,,,0.01,,2013-10-02 08:22:00,
2013-10-02 04:52:00,62.0,59.0,29.97,SSW,205,1.0,2.0,91,0.00,,,0.01,,2013-10-02 08:52:00,
2013-10-02 05:11:00,62.0,60.0,29.98,SSW,205,0.0,3.0,92,0.00,,,0.01,,2013-10-02 09:11:00,
2013-10-02 05:22:00,62.0,60.0,29.98,SSW,205,0.0,4.0,92,0.00,,,0.01,,2013-10-02 09:22:00,
2013-10-02 05:43:00,62.0,60.0,29.98,SSW,204,1.0,4.0,92,0.00,,,0.01,,2013-10-02 09:43:00,
2013-10-02 05:54:00,62.0,60.0,29.98,SSW,207,0.0,3.0,92,0.00,,,0.01,,2013-10-02 09:54:00,
2013-10-02 06:12:00,62.0,60.0,29.99,West,259,0.0,5.0,92,0.00,,,0.01,,2013-10-02 10:12:00,
2013-10-02 06:23:00,62.0,60.0,29.99,West,263,0.0,3.0,92,0.00,,,0.01,,2013-10-02 10:23:00,
2013-10-02 06:42:00,61.0,59.0,30.00,SSW,203,0.0,3.0,93,0.00,,,0.01,,2013-10-02 10:42:00,
2013-10-02 06:52:00,61.0,59.0,30.00,SW,222,0.0,4.0,93,0.00,,,0.01,,2013-10-02 10:52:00,
2013-10-02 07:12:00,61.0,59.0,30.00,SW,225,1.0,3.0,94,0.00,,,0.01,,2013-10-02 11:12:00,
2013-10-02 07:22:00,61.0,59.0,30.01,SSW,212,0.0,2.0,94,0.00,,,0.01,,2013-10-02 11:22:00,
2013-10-02 07:52:00,61.0,59.0,30.01,WSW,250,0.0,1.0,94,0.00,,,0.00,,2013-10-02 11:52:00,
2013-10-02 08:12:00,61.0,59.0,30.01,SE,146,0.0,2.0,94,0.00,,,0.00,,2013-10-02 12:12:00,
2013-10-02 08:22:00,61.0,59.0,30.02,WSW,256,0.0,1.0,94,0.00,,,0.00,,2013-10-02 12:22:00,
2013-10-02 08:42:00,61.0,59.0,30.03,West,259,0.0,1.0,94,0.00,,,0.00,,2013-10-02 12:42:00,
2013-10-02 08:52:00,61.0,60.0,30.03,WSW,250,0.0,0.0,95,0.00,,,0.00,,2013-10-02 12:52:00,
2013-10-02 09:11:00,61.0,60.0,30.03,SSW,204,0.0,3.0,95,0.00,,,0.00,,2013-10-02 13:11:00,
2013-10-02 09:22:00,62.0,61.0,30.04,WSW,248,0.0,4.0,95,0.00,,,0.00,,2013-10-02 13:22:00,
2013-10-02 09:52:00,63.0,62.0,30.05,WNW,290,0.0,2.0,95,0.00,,,0.00,,2013-10-02 13:52:00,
2013-10-02 10:11:00,64.0,62.0,30.05,SW,226,0.0,2.0,94,0.00,,,0.00,,2013-10-02 14:11:00,
2013-10-02 10:21:00,66.0,63.0,30.05,WNW,293,1.0,3.0,91,0.00,,,0.00,,2013-10-02 14:21:00,
2013-10-02 10:42:00,67.0,62.0,30.05,NW,310,1.0,3.0,85,0.00,,,0.00,,2013-10-02 14:42:00,
2013-10-02 10:52:00,68.0,61.0,30.06,NW,318,1.0,5.0,78,0.00,,,0.00,,2013-10-02 14:52:00,
2013-10-02 11:11:00,69.0,60.0,30.05,NNW,327,0.0,3.0,73,0.00,,,0.00,,2013-10-02 15:11:00,
2013-10-02 11:22:00,70.0,60.0,30.05,North,358,1.0,4.0,71,0.00,,,0.00,,2013-10-02 15:22:00,
2013-10-02 11:43:00,71.0,58.0,30.05,NNE,30,1.0,3.0,64,0.00,,,0.00,,2013-10-02 15:43:00,
2013-10-02 11:54:00,72.0,58.0,30.05,NNE,12,0.0,2.0,62,0.00,,,0.00,,2013-10-02 15:54:00,
2013-10-02 12:12:00,72.0,57.0,30.05,ENE,71,0.0,2.0,59,0.00,,,0.00,,2013-10-02 16:12:00,
2013-10-02 12:23:00,73.0,56.0,30.06,NE,56,0.0,1.0,55,0.00,,,0.00,,2013-10-02 16:23:00,
2013-10-02 12:52:00,74.0,56.0,30.05,North,4,0.0,2.0,53,0.00,,,0.00,,2013-10-02 16:52:00,
2013-10-02 13:12:00,74.0,54.0,30.05,West,259,1.0,3.0,49,0.00,,,0.00,,2013-10-02 17:12:00,
2013-10-02 13:23:00,75.0,51.0,30.05,WNW,290,1.0,3.0,43,0.00,,,0.00,,2013-10-02 17:23:00,
2013-10-02 13:42:00,76.0,53.0,30.04,WSW,255,1.0,4.0,45,0.00,,,0.00,,2013-10-02 17:42:00,
2013-10-02 13:52:00,78.0,54.0,30.04,WSW,253,1.0,4.0,44,0.00,,,0.00,,2013-10-02 17:52:00,
2013-10-02 14:12:00,78.0,54.0,30.04,ENE,57,0.0,3.0,44,0.00,,,0.00,,2013-10-02 18:12:00,
2013-10-02 14:22:00,79.0,56.0,30.03,WSW,239,0.0,4.0,45,0.00,,,0.00,,2013-10-02 18:22:00,
2013-10-02 14:42:00,80.0,55.0,30.03,SSW,195,0.0,2.0,42,0.00,,,0.00,,2013-10-02 18:42:00,
2013-10-02 14:52:00,81.0,55.0,30.02,SW,231,1.0,6.0,41,0.00,,,0.00,,2013-10-02 18:52:00,
2013-10-02 15:12:00,82.0,55.0,30.02,SW,229,0.0,3.0,39,0.00,,,0.00,,2013-10-02 19:12:00,
2013-10-02 15:22:00,82.0,55.0,30.02,WNW,297,1.0,6.0,39,0.00,,,0.00,,2013-10-02 19:22:00,
2013-10-02 15:42:00,81.0,54.0,30.01,ESE,116,0.0,5.0,39,0.00,,,0.00,,2013-10-02 19:42:00,
2013-10-02 15:52:00,81.0,53.0,30.01,NW,320,1.0,3.0,38,0.00,,,0.00,,2013-10-02 19:52:00,
2013-10-02 16:11:00,82.0,54.0,30.01,NE,46,0.0,4.0,38,0.00,,,0.00,,2013-10-02 20:11:00,
2013-10-02 16:22:00,82.0,55.0,30.00,NW,315,1.0,3.0,39,0.00,,,0.00,,2013-10-02 20:22:00,
2013-10-02 16:42:00,83.0,55.0,30.00,North,6,0.0,3.0,38,0.00,,,0.00,,2013-10-02 20:42:00,
2013-10-02 16:52:00,82.0,55.0,30.00,NW,318,1.0,6.0,39,0.00,,,0.00,,2013-10-02 20:52:00,
2013-10-02 17:11:00,81.0,52.0,30.00,North,351,2.0,5.0,37,0.00,,,0.00,,2013-10-02 21:11:00,
2013-10-02 17:22:00,82.0,54.0,29.99,NW,322,1.0,6.0,38,0.00,,,0.00,,2013-10-02 21:22:00,
2013-10-02 17:44:00,82.0,54.0,29.99,NW,321,2.0,3.0,38,0.00,,,0.00,,2013-10-02 21:44:00,
2013-10-02 17:54:00,82.0,55.0,29.99,NW,325,1.0,3.0,39,0.00,,,0.00,,2013-10-02 21:54:00,
2013-10-02 18:13:00,81.0,53.0,29.99,NNE,12,2.0,4.0,38,0.00,,,0.00,,2013-10-02 22:13:00,
2013-10-02 18:24:00,81.0,53.0,29.99,NE,43,1.0,3.0,38,0.00,,,0.00,,2013-10-02 22:24:00,
2013-10-02 18:44:00,79.0,53.0,29.99,NNE,20,1.0,2.0,40,0.00,,,0.00,,2013-10-02 22:44:00,
2013-10-02 18:53:00,78.0,53.0,29.99,NNE,27,1.0,3.0,42,0.00,,,0.00,,2013-10-02 22:53:00,
2013-10-02 19:12:00,77.0,54.0,29.99,ENE,65,1.0,2.0,45,0.00,,,0.00,,2013-10-02 23:12:00,
2013-10-02 19:22:00,75.0,53.0,30.00,ENE,60,0.0,2.0,47,0.00,,,0.00,,2013-10-02 23:22:00,
2013-10-02 19:52:00,71.0,56.0,30.00,ESE,108,0.0,1.0,59,0.00,,,0.00,,2013-10-02 23:52:00,
2013-10-02 20:12:00,69.0,57.0,30.01,ESE,107,0.0,1.0,65,0.00,,,0.00,,2013-10-03 00:12:00,
2013-10-02 20:22:00,68.0,57.0,30.01,ESE,107,0.0,0.0,69,0.00,,,0.00,,2013-10-03 00:22:00,
2013-10-02 20:42:00,67.0,57.0,30.01,ESE,108,0.0,0.0,71,0.00,,,0.00,,2013-10-03 00:42:00,
2013-10-02 20:52:00,66.0,57.0,30.01,ESE,108,0.0,0.0,74,0.00,,,0.00,,2013-10-03 00:52:00,
2013-10-02 21:11:00,65.0,57.0,30.01,ESE,107,0.0,0.0,76,0.00,,,0.00,,2013-10-03 01:11:00,
2013-10-02 21:23:00,64.0,57.0,30.01,ESE,107,0.0,0.0,78,0.00,,,0.00,,2013-10-03 01:23:00,
2013-10-02 21:42:00,64.0,58.0,30.01,ESE,108,0.0,0.0,80,0.00,,,0.00,,2013-10-03 01:42:00,
2013-10-02 21:52:00,63.0,57.0,30.01,ESE,108,0.0,0.0,81,0.00,,,0.00,,2013-10-03 01:52:00,
2013-10-02 22:11:00,63.0,58.0,30.01,ESE,107,0.0,0.0,83,0.00,,,0.00,,2013-10-03 02:11:00,
2013-10-02 22:22:00,62.0,57.0,30.01,ESE,108,0.0,0.0,84,0.00,,,0.00,,2013-10-03 02:22:00,
2013-10-02 23:11:00,61.0,57.0,30.02,ESE,107,0.0,0.0,86,0.00,,,0.00,,2013-10-03 03:11:00,
2013-10-02 23:22:00,61.0,57.0,30.02,ESE,107,0.0,0.0,87,0.00,,,0.00,,2013-10-03 03:22:00,
2013-10-02 23:44:00,60.0,56.0,30.02,ESE,107,0.0,0.0,87,0.00,,,0.00,,2013-10-03 03:44:00,
2013-10-02 23:54:00,61.0,57.0,30.02,ESE,108,0.0,0.0,87,0.00,,,0.00,,2013-10-03 03:54:00,